Time;durP1;ratioP1;P1;durP2;ratioP2;P2;SDS_P1;SDS_P2;PMS_P1;PMS_P2;Temp;Humidity;BMP_temperature;BMP_pressure;BME280_temperature;BME280_humidity;BME280_pressure;Samples;Min_cycle;Max_cycle;Signal;HPM_P1;HPM_P2
2024/01/16 00:01:51;;;;;;;5.85;2.00;;;;;;;0.39;100.00;99691.34;5945627;29;20028;-72
2024/01/16 00:04:46;;;;;;;5.80;1.80;;;;;;;0.47;100.00;99697.72;5949816;29;20032;-73
2024/01/16 00:07:41;;;;;;;8.13;2.10;;;;;;;0.44;100.00;99697.09;5947524;29;20046;-72
2024/01/16 00:10:37;;;;;;;4.75;1.40;;;;;;;0.44;100.00;99704.91;5955687;29;20036;-72
2024/01/16 00:13:33;;;;;;;5.00;1.83;;;;;;;0.48;100.00;99722.84;5949651;29;20464;-72
2024/01/16 00:16:28;;;;;;;2.65;1.30;;;;;;;0.48;100.00;99730.69;5957369;29;20042;-73
2024/01/16 00:19:23;;;;;;;3.37;1.03;;;;;;;0.39;100.00;99727.84;5957043;29;20039;-73
2024/01/16 00:22:19;;;;;;;3.67;1.57;;;;;;;0.41;100.00;99737.25;5950425;29;20456;-73
2024/01/16 00:25:14;;;;;;;2.87;1.00;;;;;;;0.38;100.00;99736.63;5952160;29;20271;-72
2024/01/16 00:28:09;;;;;;;4.80;1.10;;;;;;;0.41;100.00;99739.84;5958195;29;20044;-72
2024/01/16 00:31:07;;;;;;;5.60;1.53;;;;;;;0.44;100.00;99750.06;5953096;29;20035;-72
2024/01/16 00:34:03;;;;;;;6.40;2.30;;;;;;;0.40;100.00;99755.59;5956751;29;20361;-72
2024/01/16 00:36:58;;;;;;;6.13;2.03;;;;;;;0.29;100.00;99755.50;5952151;29;20620;-73
2024/01/16 00:39:54;;;;;;;6.23;1.70;;;;;;;0.27;100.00;99771.25;5956256;29;20040;-73
2024/01/16 00:42:49;;;;;;;8.80;1.90;;;;;;;0.27;100.00;99775.66;5954363;29;20502;-72
2024/01/16 00:45:46;;;;;;;6.75;1.38;;;;;;;0.27;100.00;99767.81;5952451;29;20031;-73
2024/01/16 00:48:41;;;;;;;2.65;1.42;;;;;;;0.27;100.00;99775.66;5955847;29;20038;-73
2024/01/16 00:51:37;;;;;;;4.90;1.75;;;;;;;0.21;100.00;99770.84;5951172;29;20036;-71
2024/01/16 00:54:32;;;;;;;4.80;1.23;;;;;;;0.30;100.00;99775.44;5950565;29;20043;-72
2024/01/16 00:57:28;;;;;;;4.25;1.33;;;;;;;0.29;100.00;99779.81;5953899;29;20364;-72
2024/01/16 01:00:23;;;;;;;5.45;1.23;;;;;;;0.33;100.00;99785.63;5954311;29;20031;-73
2024/01/16 01:03:18;;;;;;;4.33;1.80;;;;;;;0.31;100.00;99792.72;5953175;29;20083;-73
2024/01/16 01:06:14;;;;;;;3.57;1.20;;;;;;;0.29;100.00;99802.44;5953253;29;20032;-74
2024/01/16 01:09:11;;;;;;;2.03;1.23;;;;;;;0.31;100.00;99803.16;5948763;29;20035;-72
2024/01/16 01:12:08;;;;;;;3.20;1.13;;;;;;;0.35;100.00;99804.63;5954480;29;20079;-71
2024/01/16 01:15:03;;;;;;;4.05;1.10;;;;;;;0.29;100.00;99810.25;5958045;29;20082;-72
2024/01/16 01:17:59;;;;;;;4.65;1.52;;;;;;;0.30;100.00;99823.16;5952051;29;20439;-71
2024/01/16 01:20:54;;;;;;;1.83;0.90;;;;;;;0.24;100.00;99813.19;5956799;29;20032;-73
2024/01/16 01:23:49;;;;;;;1.83;0.80;;;;;;;0.33;100.00;99825.56;5953372;29;20123;-73
2024/01/16 01:26:45;;;;;;;3.67;0.95;;;;;;;0.32;100.00;99823.94;5954788;29;20024;-72
2024/01/16 01:29:40;;;;;;;1.60;0.87;;;;;;;0.29;100.00;99831.09;5956235;29;20042;-73
2024/01/16 01:32:36;;;;;;;1.33;0.80;;;;;;;0.34;100.00;99842.06;5952164;29;20521;-73
2024/01/16 01:35:32;;;;;;;6.15;1.25;;;;;;;0.27;100.00;99833.78;5953073;29;20047;-73
2024/01/16 01:38:27;;;;;;;5.63;1.27;;;;;;;0.27;100.00;99831.19;5949525;29;20048;-73
2024/01/16 01:41:22;;;;;;;2.03;1.10;;;;;;;0.24;100.00;99827.97;5954496;29;20483;-72
2024/01/16 01:44:18;;;;;;;1.83;0.93;;;;;;;0.26;100.00;99842.56;5955471;29;20036;-73
2024/01/16 01:47:13;;;;;;;1.67;0.70;;;;;;;0.23;100.00;99834.13;5947058;29;20027;-73
2024/01/16 01:50:09;;;;;;;1.95;0.73;;;;;;;0.20;100.00;99831.72;5955211;29;20043;-73
2024/01/16 01:53:05;;;;;;;2.28;0.77;;;;;;;0.29;100.00;99846.75;5955766;29;20369;-73
2024/01/16 01:56:03;;;;;;;3.80;0.83;;;;;;;0.25;100.00;99848.72;5950638;29;20067;-72
2024/01/16 01:58:59;;;;;;;1.30;0.57;;;;;;;0.21;100.00;99843.81;5949396;29;20043;-73
2024/01/16 02:01:55;;;;;;;2.03;0.80;;;;;;;0.11;100.00;99845.38;5954862;29;20116;-73
2024/01/16 02:04:51;;;;;;;2.15;1.02;;;;;;;0.12;100.00;99855.69;5952173;29;20067;-73
2024/01/16 02:07:46;;;;;;;5.95;1.63;;;;;;;0.08;100.00;99863.81;5950870;29;20058;-73
2024/01/16 02:10:43;;;;;;;2.30;1.33;;;;;;;0.06;100.00;99861.28;5951164;29;20119;-73
2024/01/16 02:13:38;;;;;;;8.27;1.40;;;;;;;0.02;100.00;99866.81;5953740;29;20031;-73
2024/01/16 02:16:38;;;;;;;3.97;1.20;;;;;;;-0.09;100.00;99852.72;5953183;29;20067;-73
2024/01/16 02:19:34;;;;;;;7.75;1.20;;;;;;;-0.01;100.00;99875.69;5956564;29;20395;-73
2024/01/16 02:22:32;;;;;;;3.33;1.23;;;;;;;-0.04;100.00;99870.66;5955643;29;20031;-74
2024/01/16 02:25:28;;;;;;;2.67;1.08;;;;;;;-0.07;100.00;99871.69;5947888;29;20503;-73
2024/01/16 02:28:23;;;;;;;4.65;1.13;;;;;;;-0.17;100.00;99859.38;5950227;29;20030;-73
2024/01/16 02:31:18;;;;;;;10.30;1.77;;;;;;;-0.22;100.00;99870.06;5952505;29;20608;-73
2024/01/16 02:34:14;;;;;;;3.08;1.17;;;;;;;-0.26;100.00;99881.63;5950812;29;20036;-73
2024/01/16 02:37:10;;;;;;;5.55;1.50;;;;;;;-0.36;100.00;99875.34;5949905;29;20070;-72
2024/01/16 02:40:06;;;;;;;4.88;1.70;;;;;;;-0.34;100.00;99870.88;5952198;29;20028;-73
2024/01/16 02:43:01;;;;;;;3.67;1.30;;;;;;;-0.30;100.00;99877.53;5949403;29;20175;-72
2024/01/16 02:45:57;;;;;;;7.63;1.43;;;;;;;-0.32;100.00;99882.03;5948698;29;20024;-73
2024/01/16 02:48:53;;;;;;;6.10;1.40;;;;;;;-0.33;100.00;99882.97;5952868;29;20039;-73
2024/01/16 02:51:48;;;;;;;5.47;1.40;;;;;;;-0.28;100.00;99893.94;5964289;28;20067;-74
2024/01/16 02:54:44;;;;;;;3.10;0.93;;;;;;;-0.21;100.00;99900.41;5952007;29;20118;-73
2024/01/16 02:57:39;;;;;;;3.75;1.00;;;;;;;-0.18;100.00;99905.41;5947087;29;20112;-73
2024/01/16 03:00:34;;;;;;;3.70;1.00;;;;;;;-0.07;100.00;99918.59;5955996;29;20030;-73
2024/01/16 03:03:30;;;;;;;1.07;0.80;;;;;;;-0.07;100.00;99923.81;5953725;29;20283;-73
2024/01/16 03:06:25;;;;;;;5.20;1.10;;;;;;;-0.09;100.00;99930.88;5955413;29;20619;-74
2024/01/16 03:09:20;;;;;;;4.17;1.27;;;;;;;-0.13;100.00;99926.78;5950713;29;20034;-74
2024/01/16 03:12:17;;;;;;;2.22;0.80;;;;;;;-0.18;100.00;99926.25;5949179;29;20111;-73
2024/01/16 03:15:12;;;;;;;3.72;1.20;;;;;;;-0.16;100.00;99929.59;5955861;29;20040;-72
2024/01/16 03:18:07;;;;;;;4.07;0.90;;;;;;;-0.10;100.00;99950.06;5950504;29;20028;-72
2024/01/16 03:21:07;;;;;;;4.73;0.90;;;;;;;-0.07;100.00;99962.03;5952912;29;20110;-72
2024/01/16 03:24:02;;;;;;;2.00;0.98;;;;;;;-0.07;100.00;99944.66;5952032;29;20035;-73
2024/01/16 03:26:58;;;;;;;4.10;1.00;;;;;;;-0.15;100.00;99952.13;5954646;29;20046;-73
2024/01/16 03:29:53;;;;;;;1.83;1.00;;;;;;;-0.10;100.00;99955.25;5950333;29;20043;-73
2024/01/16 03:32:48;;;;;;;2.45;0.80;;;;;;;-0.15;100.00;99954.72;5951123;29;20288;-73
2024/01/16 03:35:44;;;;;;;3.80;1.23;;;;;;;-0.16;100.00;99966.06;5954989;29;20060;-73
2024/01/16 03:38:39;;;;;;;2.67;1.02;;;;;;;-0.19;100.00;99966.25;5947389;29;20039;-73
2024/01/16 03:41:35;;;;;;;4.97;1.15;;;;;;;-0.24;100.00;99964.88;5952291;29;20039;-73
2024/01/16 03:44:30;;;;;;;6.57;1.30;;;;;;;-0.25;100.00;99977.09;5948539;29;20113;-73
2024/01/16 03:47:25;;;;;;;3.57;1.10;;;;;;;-0.38;100.00;99965.72;5947348;29;20031;-73
2024/01/16 03:50:21;;;;;;;4.50;1.10;;;;;;;-0.43;100.00;99983.41;5948422;29;20034;-73
2024/01/16 03:53:16;;;;;;;3.73;0.93;;;;;;;-0.40;100.00;99988.44;5953184;29;20636;-74
2024/01/16 03:56:12;;;;;;;3.92;1.30;;;;;;;-0.39;100.00;99990.13;5953481;29;20472;-74
2024/01/16 03:59:08;;;;;;;4.88;1.85;;;;;;;-0.43;100.00;99986.03;5951389;28;20043;-74
2024/01/16 04:02:03;;;;;;;3.67;1.10;;;;;;;-0.43;100.00;99979.97;5953396;29;20086;-74
2024/01/16 04:04:59;;;;;;;2.67;0.80;;;;;;;-0.42;100.00;99999.88;5950522;29;20044;-74
2024/01/16 04:07:56;;;;;;;6.90;1.45;;;;;;;-0.51;100.00;99998.66;5948363;29;20035;-74
2024/01/16 04:10:52;;;;;;;5.95;2.40;;;;;;;-0.51;100.00;99993.47;5953678;29;20572;-74
2024/01/16 04:13:47;;;;;;;2.92;1.20;;;;;;;-0.53;100.00;99995.34;5952177;29;20039;-74
2024/01/16 04:16:43;;;;;;;5.40;1.80;;;;;;;-0.55;100.00;99994.59;5946595;29;20084;-74
2024/01/16 04:19:39;;;;;;;8.07;1.80;;;;;;;-0.53;100.00;99990.13;5949441;29;20163;-74
2024/01/16 04:22:35;;;;;;;6.43;1.75;;;;;;;-0.56;100.00;99985.09;5952766;29;20035;-74
2024/01/16 04:25:30;;;;;;;5.22;1.38;;;;;;;-0.62;100.00;99983.72;5945374;29;20036;-73
2024/01/16 04:28:25;;;;;;;5.77;2.17;;;;;;;-0.62;100.00;99988.91;5951628;29;20087;-73
2024/01/16 04:31:22;;;;;;;4.90;1.48;;;;;;;-0.60;100.00;99991.44;5949543;29;20028;-73
2024/01/16 04:34:18;;;;;;;7.82;1.60;;;;;;;-0.61;100.00;99984.56;5951821;29;20085;-74
2024/01/16 04:37:14;;;;;;;6.72;2.05;;;;;;;-0.50;100.00;99999.50;5950452;29;20510;-74
2024/01/16 04:40:10;;;;;;;4.75;1.40;;;;;;;-0.58;100.00;99991.34;5949768;29;20087;-74
2024/01/16 04:43:05;;;;;;;7.70;1.42;;;;;;;-0.44;100.00;100000.00;5950835;28;20048;-73
2024/01/16 04:46:01;;;;;;;8.00;1.60;;;;;;;-0.52;100.00;99986.59;5949319;29;20040;-74
2024/01/16 04:48:56;;;;;;;6.73;1.57;;;;;;;-0.54;100.00;99993.66;5955164;29;20083;-74
2024/01/16 04:51:51;;;;;;;4.30;1.90;;;;;;;-0.46;100.00;100011.44;5955863;29;20122;-74
2024/01/16 04:54:47;;;;;;;6.27;1.60;;;;;;;-0.46;100.00;100019.25;5943814;29;20038;-74
2024/01/16 04:57:42;;;;;;;11.47;2.70;;;;;;;-0.51;100.00;100003.03;5942139;29;20066;-74
2024/01/16 05:00:37;;;;;;;13.23;1.57;;;;;;;-0.53;100.00;100017.91;5957653;29;20294;-74
2024/01/16 05:03:33;;;;;;;9.90;1.13;;;;;;;-0.57;100.00;100011.25;5958053;29;20494;-73
2024/01/16 05:06:28;;;;;;;3.03;0.93;;;;;;;-0.64;100.00;100013.38;5947191;29;20090;-74
2024/01/16 05:09:23;;;;;;;2.13;0.83;;;;;;;-0.69;100.00;100018.03;5958389;29;20047;-74
2024/01/16 05:12:18;;;;;;;7.27;1.97;;;;;;;-0.73;100.00;100008.72;5957238;29;20031;-74
2024/01/16 05:15:14;;;;;;;6.28;2.22;;;;;;;-0.78;100.00;100013.34;5953944;29;20032;-74
2024/01/16 05:18:10;;;;;;;3.30;1.23;;;;;;;-0.95;100.00;99997.94;5944903;29;20035;-74
2024/01/16 05:21:06;;;;;;;4.63;1.03;;;;;;;-0.87;100.00;100013.94;5945864;29;20031;-73
2024/01/16 05:24:02;;;;;;;5.00;1.48;;;;;;;-0.83;100.00;100028.41;5944748;29;20036;-74
2024/01/16 05:26:57;;;;;;;4.68;1.30;;;;;;;-0.89;100.00;100018.38;5953480;29;20062;-75
2024/01/16 05:29:53;;;;;;;7.17;1.63;;;;;;;-0.83;100.00;100031.84;5958006;29;20032;-74
2024/01/16 05:32:48;;;;;;;8.83;1.80;;;;;;;-0.84;100.00;100026.72;5955347;29;20747;-74
2024/01/16 05:35:43;;;;;;;4.23;1.87;;;;;;;-0.78;100.00;100026.38;5957064;29;20036;-74
2024/01/16 05:38:39;;;;;;;7.18;1.35;;;;;;;-0.82;100.00;100017.94;5950758;29;20083;-74
2024/01/16 05:41:34;;;;;;;3.60;1.20;;;;;;;-0.72;100.00;100031.22;5951762;29;20032;-74
2024/01/16 05:44:30;;;;;;;7.45;1.45;;;;;;;-0.82;100.00;100017.09;5944304;29;20039;-74
2024/01/16 05:47:27;;;;;;;9.73;1.47;;;;;;;-0.84;100.00;100026.72;5954920;29;20126;-73
2024/01/16 05:50:23;;;;;;;2.78;1.23;;;;;;;-0.98;100.00;100011.94;5958248;29;20023;-73
2024/01/16 05:53:18;;;;;;;5.80;1.60;;;;;;;-0.87;100.00;100024.34;5958128;29;20067;-74
2024/01/16 05:56:14;;;;;;;3.65;1.27;;;;;;;-0.87;100.00;100025.16;5955365;29;20039;-74
2024/01/16 05:59:09;;;;;;;4.30;1.40;;;;;;;-0.85;100.00;100019.88;5940289;29;20043;-73
2024/01/16 06:02:04;;;;;;;5.93;1.33;;;;;;;-0.98;100.00;100016.34;5953416;29;20307;-72
2024/01/16 06:05:00;;;;;;;5.73;1.63;;;;;;;-1.03;100.00;100013.16;5943147;29;20039;-73
2024/01/16 06:07:55;;;;;;;4.90;1.43;;;;;;;-0.97;100.00;100024.03;5961775;29;20043;-73
2024/01/16 06:10:50;;;;;;;2.63;1.50;;;;;;;-0.98;100.00;100024.13;5956993;29;20036;-72
2024/01/16 06:13:46;;;;;;;4.10;1.50;;;;;;;-1.06;100.00;100023.75;5939383;28;20118;-73
2024/01/16 06:16:41;;;;;;;6.30;1.30;;;;;;;-1.14;100.00;100025.97;5957091;28;20384;-73
2024/01/16 06:19:36;;;;;;;5.60;1.20;;;;;;;-1.10;100.00;100022.25;5957067;29;20027;-71
2024/01/16 06:22:32;;;;;;;6.33;2.13;;;;;;;-1.19;100.00;100013.22;5957327;29;20028;-72
2024/01/16 06:25:27;;;;;;;8.63;1.40;;;;;;;-1.17;100.00;100020.94;5944148;29;20090;-73
2024/01/16 06:28:22;;;;;;;8.00;1.43;;;;;;;-1.16;100.00;100022.59;5950643;28;20643;-73
2024/01/16 06:31:17;;;;;;;7.93;1.50;;;;;;;-1.13;100.00;100033.66;5952288;29;20047;-72
2024/01/16 06:34:13;;;;;;;7.93;1.30;;;;;;;-1.12;100.00;100031.91;5953969;29;20046;-72
2024/01/16 06:37:08;;;;;;;5.27;1.70;;;;;;;-1.14;100.00;100031.16;5952374;29;20071;-72
2024/01/16 06:40:05;;;;;;;5.30;1.43;;;;;;;-1.12;100.00;100024.09;5957275;29;20039;-72
2024/01/16 06:43:00;;;;;;;4.70;1.30;;;;;;;-1.12;100.00;100039.72;5952932;29;20295;-73
2024/01/16 06:45:55;;;;;;;4.80;1.37;;;;;;;-1.22;100.00;100035.03;5947830;29;20056;-72
2024/01/16 06:48:51;;;;;;;4.43;1.30;;;;;;;-1.18;100.00;100037.47;5952085;29;20115;-72
2024/01/16 06:51:46;;;;;;;3.57;1.23;;;;;;;-1.06;100.00;100057.56;5952127;29;20039;-72
2024/01/16 06:54:41;;;;;;;9.50;2.57;;;;;;;-1.14;100.00;100046.78;5951133;29;20070;-74
2024/01/16 06:57:37;;;;;;;6.17;2.07;;;;;;;-1.12;100.00;100050.13;5949820;28;20583;-73
2024/01/16 07:00:32;;;;;;;5.60;1.67;;;;;;;-1.04;100.00;100056.53;5953409;29;20032;-73
2024/01/16 07:03:27;;;;;;;8.38;1.90;;;;;;;-1.02;100.00;100048.63;5955383;29;20035;-73
2024/01/16 07:06:23;;;;;;;6.17;1.87;;;;;;;-0.94;100.00;100051.63;5948342;29;20400;-72
2024/01/16 07:09:20;;;;;;;5.43;2.00;;;;;;;-0.94;100.00;100057.69;5953904;29;20043;-72
2024/01/16 07:12:15;;;;;;;7.13;2.08;;;;;;;-0.90;100.00;100066.16;5953456;29;20091;-72
2024/01/16 07:15:11;;;;;;;4.33;1.70;;;;;;;-0.90;100.00;100069.59;5955190;29;20464;-73
2024/01/16 07:18:06;;;;;;;5.65;1.60;;;;;;;-0.97;100.00;100059.59;5956892;29;20032;-72
2024/01/16 07:21:03;;;;;;;9.03;2.57;;;;;;;-0.97;100.00;100051.81;5956511;29;20084;-73
2024/01/16 07:23:58;;;;;;;4.00;1.50;;;;;;;-0.79;100.00;100063.75;5956523;29;20114;-72
2024/01/16 07:26:54;;;;;;;5.53;2.07;;;;;;;-0.76;100.00;100064.38;5944976;29;20397;-73
2024/01/16 07:29:49;;;;;;;10.88;2.33;;;;;;;-0.79;100.00;100058.56;5953841;29;20298;-72
2024/01/16 07:32:44;;;;;;;8.47;2.40;;;;;;;-0.80;100.00;100067.28;5948236;29;20040;-73
2024/01/16 07:35:41;;;;;;;7.83;1.87;;;;;;;-0.77;100.00;100072.31;5950122;29;20047;-72
2024/01/16 07:38:36;;;;;;;9.40;2.47;;;;;;;-0.70;100.00;100078.81;5937202;29;20170;-72
2024/01/16 07:41:32;;;;;;;7.30;2.03;;;;;;;-0.76;100.00;100072.19;5947566;29;20053;-72
2024/01/16 07:44:28;;;;;;;7.97;2.10;;;;;;;-0.83;100.00;100068.28;5954071;29;20031;-72
2024/01/16 07:47:23;;;;;;;8.43;2.22;;;;;;;-0.82;100.00;100069.13;5950876;29;20039;-72
2024/01/16 07:50:18;;;;;;;6.17;2.20;;;;;;;-0.79;100.00;100080.19;5951597;29;20033;-73
2024/01/16 07:53:13;;;;;;;6.67;2.17;;;;;;;-0.78;100.00;100075.81;5941722;29;20310;-72
2024/01/16 07:56:11;;;;;;;7.45;2.45;;;;;;;-0.72;100.00;100075.47;5954226;29;20392;-72
2024/01/16 07:59:07;;;;;;;6.00;2.00;;;;;;;-0.76;100.00;100071.38;5938863;29;20044;-72
2024/01/16 08:02:02;;;;;;;4.40;1.60;;;;;;;-0.70;100.00;100073.59;5952816;29;20044;-73
2024/01/16 08:04:58;;;;;;;7.00;2.20;;;;;;;-0.58;100.00;100075.47;5951499;29;20043;-73
2024/01/16 08:07:54;;;;;;;8.80;2.00;;;;;;;-0.55;100.00;100070.09;5947498;29;20074;-73
2024/01/16 08:10:49;;;;;;;6.93;2.22;;;;;;;-0.59;100.00;100066.00;5953502;29;20212;-72
2024/01/16 08:13:45;;;;;;;7.73;2.70;;;;;;;-0.57;100.00;100079.75;5954242;29;20031;-72
2024/01/16 08:16:41;;;;;;;4.80;2.45;;;;;;;-0.57;100.00;100077.13;5942578;29;20040;-72
2024/01/16 08:19:36;;;;;;;7.65;2.50;;;;;;;-0.54;100.00;100073.53;5939081;29;20040;-73
2024/01/16 08:22:31;;;;;;;7.27;2.37;;;;;;;-0.48;100.00;100087.00;5946744;29;20039;-73
2024/01/16 08:25:27;;;;;;;8.97;2.97;;;;;;;-0.53;100.00;100078.66;5951810;29;20046;-73
2024/01/16 08:28:24;;;;;;;7.03;2.50;;;;;;;-0.53;100.00;100083.84;5947700;29;20028;-73
2024/01/16 08:31:19;;;;;;;8.98;2.30;;;;;;;-0.53;100.00;100080.41;5942080;29;20039;-73
2024/01/16 08:34:14;;;;;;;8.85;3.30;;;;;;;-0.44;100.00;100090.28;5954231;29;20099;-73
2024/01/16 08:37:10;;;;;;;7.47;2.33;;;;;;;-0.46;100.00;100082.53;5958253;29;20047;-73
2024/01/16 08:40:06;;;;;;;9.43;2.10;;;;;;;-0.46;100.00;100085.16;5957648;29;20144;-73
2024/01/16 08:43:01;;;;;;;9.10;3.05;;;;;;;-0.43;100.00;100086.72;5964244;29;20280;-74
2024/01/16 08:45:57;;;;;;;7.32;2.35;;;;;;;-0.34;100.00;100092.25;5958939;29;20043;-73
2024/01/16 08:48:52;;;;;;;8.70;2.43;;;;;;;-0.33;100.00;100088.72;5956367;29;20135;-73
2024/01/16 08:51:47;;;;;;;7.87;2.20;;;;;;;-0.29;100.00;100095.41;5948870;29;20428;-73
2024/01/16 08:54:43;;;;;;;12.83;2.17;;;;;;;-0.26;100.00;100090.00;5957306;29;20032;-73
2024/01/16 08:57:38;;;;;;;6.07;2.00;;;;;;;-0.20;100.00;100084.44;5953870;29;20741;-74
2024/01/16 09:00:33;;;;;;;10.20;1.93;;;;;;;-0.14;100.00;100084.06;5956571;29;20059;-73
2024/01/16 09:03:28;;;;;;;8.13;2.10;;;;;;;-0.09;100.00;100087.22;5951805;29;20472;-74
2024/01/16 09:06:24;;;;;;;10.57;2.33;;;;;;;0.06;100.00;100090.63;5961208;29;20110;-74
2024/01/16 09:09:19;;;;;;;8.30;2.97;;;;;;;0.14;100.00;100079.72;5951739;29;20046;-74
2024/01/16 09:12:15;;;;;;;5.70;2.20;;;;;;;0.27;100.00;100091.88;5945226;29;20091;-73
2024/01/16 09:15:10;;;;;;;7.40;2.28;;;;;;;0.22;100.00;100082.69;5961462;29;20040;-74
2024/01/16 09:18:05;;;;;;;5.18;2.05;;;;;;;0.23;100.00;100094.78;5955718;29;20031;-74
2024/01/16 09:21:01;;;;;;;6.50;1.90;;;;;;;0.18;100.00;100084.66;5957017;29;20039;-74
2024/01/16 09:23:57;;;;;;;8.07;2.08;;;;;;;0.15;100.00;100084.00;5960661;29;20032;-74
2024/01/16 09:26:52;;;;;;;8.23;2.50;;;;;;;0.20;100.00;100093.22;5956445;28;20036;-74
2024/01/16 09:29:49;;;;;;;6.47;2.40;;;;;;;0.20;100.00;100092.38;5954336;29;20036;-73
2024/01/16 09:32:45;;;;;;;5.55;2.05;;;;;;;0.22;100.00;100080.09;5958013;29;20027;-73
2024/01/16 09:35:40;;;;;;;9.98;1.95;;;;;;;0.30;100.00;100090.88;5958118;29;20482;-73
2024/01/16 09:38:36;;;;;;;8.32;2.17;;;;;;;0.45;100.00;100100.31;5955506;29;20032;-73
2024/01/16 09:41:32;;;;;;;4.85;1.73;;;;;;;0.62;100.00;100092.28;5941062;29;20111;-72
2024/01/16 09:44:28;;;;;;;7.18;2.08;;;;;;;0.77;100.00;100093.88;5961473;29;20092;-72
2024/01/16 09:47:24;;;;;;;6.32;2.00;;;;;;;0.80;100.00;100093.69;5939698;29;20032;-72
2024/01/16 09:50:20;;;;;;;6.35;1.98;;;;;;;0.76;100.00;100088.78;5956976;29;20486;-73
2024/01/16 09:53:15;;;;;;;11.18;2.42;;;;;;;0.74;100.00;100085.41;5951075;29;20070;-73
2024/01/16 09:56:15;;;;;;;4.43;1.80;;;;;;;0.56;100.00;100084.84;5958217;29;20046;-73
2024/01/16 09:59:15;;;;;;;6.55;2.17;;;;;;;0.54;100.00;100094.53;5943215;29;20123;-73
2024/01/16 10:02:12;;;;;;;7.28;2.38;;;;;;;0.47;100.00;100101.06;5961245;29;20036;-73
2024/01/16 10:05:09;;;;;;;18.25;2.03;;;;;;;0.61;100.00;100101.03;5956645;29;20027;-73
2024/01/16 10:08:04;;;;;;;7.32;1.70;;;;;;;0.71;100.00;100096.06;5957018;29;20489;-74
2024/01/16 10:11:00;;;;;;;5.43;2.40;;;;;;;0.88;100.00;100106.22;5952130;29;20024;-73
2024/01/16 10:13:56;;;;;;;6.83;2.97;;;;;;;0.97;100.00;100096.03;5944332;29;20330;-74
2024/01/16 10:16:58;;;;;;;7.80;2.65;;;;;;;1.10;100.00;100101.28;5955802;29;20034;-73
2024/01/16 10:19:56;;;;;;;7.35;2.35;;;;;;;1.19;100.00;100111.13;5956822;29;20032;-73
2024/01/16 10:22:54;;;;;;;12.30;2.63;;;;;;;1.08;100.00;100104.00;5956910;29;20077;-74
2024/01/16 10:26:09;;;;;;;6.97;2.50;;;;;;;1.07;100.00;100094.47;5957374;29;20059;-74
2024/01/16 10:29:05;;;;;;;7.60;3.00;;;;;;;1.22;100.00;100107.47;5951682;29;20082;-73
2024/01/16 10:32:00;;;;;;;7.17;2.90;;;;;;;1.21;100.00;100098.78;5951352;29;20032;-74
2024/01/16 10:35:11;;;;;;;7.67;2.80;;;;;;;1.16;100.00;100106.94;5954676;29;20044;-74
2024/01/16 10:38:07;;;;;;;10.35;2.30;;;;;;;1.18;100.00;100107.66;5957760;29;20036;-73
2024/01/16 10:41:08;;;;;;;10.67;2.50;;;;;;;1.19;100.00;100113.72;5946534;29;20036;-73
2024/01/16 10:44:04;;;;;;;7.93;1.73;;;;;;;1.10;100.00;100114.31;5953674;29;20042;-74
2024/01/16 10:47:10;;;;;;;6.22;2.58;;;;;;;1.14;100.00;100100.94;5954101;29;20454;-73
2024/01/16 10:50:09;;;;;;;7.38;2.15;;;;;;;1.18;100.00;100112.88;5954724;29;20043;-73
2024/01/16 10:53:05;;;;;;;8.63;2.17;;;;;;;1.18;100.00;100110.28;5956826;29;20031;-73
2024/01/16 10:56:02;;;;;;;7.80;2.10;;;;;;;1.11;100.00;100108.19;5956817;29;20051;-73
2024/01/16 10:59:11;;;;;;;8.63;2.00;;;;;;;1.16;100.00;100116.53;5953493;29;20034;-74
2024/01/16 11:02:10;;;;;;;7.22;2.00;;;;;;;1.05;100.00;100104.19;5954095;29;20134;-74
2024/01/16 11:05:06;;;;;;;5.47;2.10;;;;;;;1.04;100.00;100105.13;5960329;29;20035;-73
2024/01/16 11:08:02;;;;;;;12.60;3.13;;;;;;;1.09;100.00;100103.03;5955755;29;20032;-74
2024/01/16 11:10:59;;;;;;;7.70;2.45;;;;;;;1.10;100.00;100094.28;5953141;29;20043;-74
2024/01/16 11:13:55;;;;;;;5.97;2.15;;;;;;;1.18;100.00;100114.66;5955198;29;20167;-73
2024/01/16 11:16:51;;;;;;;7.95;2.30;;;;;;;1.24;100.00;100097.75;5955279;29;20150;-73
2024/01/16 11:19:47;;;;;;;13.77;2.40;;;;;;;1.32;100.00;100105.91;5954067;29;20031;-73
2024/01/16 11:22:44;;;;;;;8.50;2.65;;;;;;;1.30;100.00;100105.19;5944575;29;20449;-73
2024/01/16 11:25:39;;;;;;;10.13;2.33;;;;;;;1.32;100.00;100106.75;5953785;29;20043;-73
2024/01/16 11:28:35;;;;;;;10.37;3.50;;;;;;;1.28;100.00;100105.25;5952435;29;20122;-73
2024/01/16 11:31:32;;;;;;;9.52;3.28;;;;;;;1.28;100.00;100105.25;5942951;29;20036;-73
2024/01/16 11:34:42;;;;;;;8.98;2.35;;;;;;;1.28;100.00;100099.22;5951757;29;20040;-74
2024/01/16 11:37:40;;;;;;;7.80;2.78;;;;;;;1.22;100.00;100103.09;5954756;29;20086;-73
2024/01/16 11:40:36;;;;;;;5.20;2.00;;;;;;;1.16;100.00;100100.88;5942698;29;20071;-73
2024/01/16 11:43:34;;;;;;;4.80;1.80;;;;;;;1.18;100.00;100099.81;5949406;29;20032;-73
2024/01/16 11:47:02;;;;;;;5.90;2.28;;;;;;;1.18;100.00;100097.22;5953808;29;20063;-73
2024/01/16 11:50:13;;;;;;;7.20;2.15;;;;;;;1.07;100.00;100081.44;5952595;29;20448;-73
2024/01/16 11:53:08;;;;;;;5.03;1.65;;;;;;;1.17;100.00;100098.16;5943884;29;20055;-72
2024/01/16 11:56:19;;;;;;;7.05;1.60;;;;;;;1.28;100.00;100099.22;5952710;29;20036;-74
2024/01/16 11:59:26;;;;;;;7.95;2.20;;;;;;;1.39;100.00;100102.78;5953538;29;20071;-73
2024/01/16 12:02:29;;;;;;;5.10;1.92;;;;;;;1.44;100.00;100107.69;5945706;29;20036;-73
2024/01/16 12:05:24;;;;;;;7.20;1.80;;;;;;;1.49;100.00;100113.44;5954429;29;20044;-73
2024/01/16 12:08:23;;;;;;;3.73;1.50;;;;;;;1.42;100.00;100117.41;5953803;29;20066;-73
2024/01/16 12:11:19;;;;;;;16.52;3.17;;;;;;;1.39;100.00;100113.22;5953340;29;20278;-72
2024/01/16 12:14:14;;;;;;;7.00;2.20;;;;;;;1.30;100.00;100108.63;5952341;29;20539;-73
2024/01/16 12:17:13;;;;;;;6.47;1.85;;;;;;;1.36;100.00;100107.38;5951372;29;20039;-72
2024/01/16 12:20:17;;;;;;;6.30;2.28;;;;;;;1.30;100.00;100099.94;5953794;29;20027;-73
2024/01/16 12:23:13;;;;;;;7.60;2.20;;;;;;;1.27;100.00;100101.00;5948198;29;20115;-73
2024/01/16 12:26:08;;;;;;;8.15;2.45;;;;;;;1.34;100.00;100109.22;5949752;29;20071;-72
2024/01/16 12:29:04;;;;;;;7.53;2.80;;;;;;;1.24;100.00;100098.59;5955023;29;20471;-74
2024/01/16 12:32:11;;;;;;;7.23;2.07;;;;;;;1.25;100.00;100107.25;5955303;29;20035;-72
2024/01/16 12:35:06;;;;;;;5.65;2.20;;;;;;;1.19;100.00;100096.28;5955209;29;20455;-72
2024/01/16 12:38:02;;;;;;;4.50;1.60;;;;;;;1.22;100.00;100099.63;5944456;29;20036;-73
2024/01/16 12:40:58;;;;;;;6.25;2.25;;;;;;;1.14;100.00;100106.19;5958908;29;20047;-73
2024/01/16 12:43:54;;;;;;;7.80;2.08;;;;;;;1.10;100.00;100102.09;5954971;29;20111;-73
2024/01/16 12:46:56;;;;;;;4.80;2.07;;;;;;;1.12;100.00;100094.16;5954938;29;20031;-73
2024/01/16 12:49:51;;;;;;;4.55;1.98;;;;;;;1.04;100.00;100086.84;5955520;29;20030;-73
2024/01/16 12:52:46;;;;;;;10.40;2.23;;;;;;;1.05;100.00;100087.69;5953880;29;20027;-73
2024/01/16 12:55:42;;;;;;;8.50;2.03;;;;;;;0.97;100.00;100075.16;5941468;29;20284;-73
2024/01/16 12:58:37;;;;;;;6.45;1.98;;;;;;;1.09;100.00;100079.53;5940062;29;20047;-72
2024/01/16 13:01:33;;;;;;;10.07;2.28;;;;;;;1.11;100.00;100090.72;5949334;29;20063;-72
2024/01/16 13:04:28;;;;;;;8.98;2.72;;;;;;;1.06;100.00;100090.19;5955282;29;20043;-73
2024/01/16 13:07:25;;;;;;;5.73;2.67;;;;;;;1.04;100.00;100101.66;5954189;29;20070;-73
2024/01/16 13:10:21;;;;;;;7.85;2.65;;;;;;;1.02;100.00;100088.72;5955014;29;20039;-73
2024/01/16 13:13:16;;;;;;;5.20;2.50;;;;;;;1.11;100.00;100102.94;5954993;29;20054;-73
2024/01/16 13:16:12;;;;;;;5.82;2.40;;;;;;;1.07;100.00;100080.59;5954575;29;20279;-71
2024/01/16 13:19:09;;;;;;;6.87;2.83;;;;;;;1.09;100.00;100089.97;5954595;29;20036;-72
2024/01/16 13:22:06;;;;;;;7.60;2.88;;;;;;;1.10;100.00;100083.00;5955785;29;20063;-72
2024/01/16 13:25:02;;;;;;;8.80;2.38;;;;;;;1.15;100.00;100079.16;5958849;29;20047;-72
2024/01/16 13:27:57;;;;;;;14.57;2.97;;;;;;;1.15;100.00;100079.16;5958423;29;20403;-73
2024/01/16 13:30:52;;;;;;;8.47;2.73;;;;;;;1.13;100.00;100082.78;5958595;29;20070;-73
2024/01/16 13:33:48;;;;;;;8.60;3.17;;;;;;;1.02;100.00;100072.22;5944552;29;20032;-73
2024/01/16 13:36:43;;;;;;;11.07;3.70;;;;;;;0.98;100.00;100066.38;5958570;29;20046;-73
2024/01/16 13:39:38;;;;;;;10.10;3.20;;;;;;;0.95;100.00;100071.78;5958086;29;20031;-73